sensor_id;sensor_type;location;lat;lon;timestamp;P1;durP1;ratioP1;P2;durP2;ratioP2
41139;SDS011;26881;48.784;9.192;2023-11-19T00:05:15;3.27;;;2.10;;
41139;SDS011;26881;48.784;9.192;2023-11-19T00:10:37;3.77;;;2.70;;
41139;SDS011;26881;48.784;9.192;2023-11-19T00:15:59;4.03;;;2.53;;
41139;SDS011;26881;48.784;9.192;2023-11-19T00:21:21;5.27;;;4.17;;
41139;SDS011;26881;48.784;9.192;2023-11-19T00:26:43;4.37;;;3.60;;
41139;SDS011;26881;48.784;9.192;2023-11-19T00:32:05;5.18;;;3.85;;
41139;SDS011;26881;48.784;9.192;2023-11-19T00:37:29;5.50;;;3.87;;
41139;SDS011;26881;48.784;9.192;2023-11-19T00:42:51;4.50;;;2.90;;
41139;SDS011;26881;48.784;9.192;2023-11-19T00:48:13;3.27;;;2.97;;
41139;SDS011;26881;48.784;9.192;2023-11-19T00:53:35;5.03;;;3.00;;
41139;SDS011;26881;48.784;9.192;2023-11-19T00:58:56;3.77;;;2.60;;
41139;SDS011;26881;48.784;9.192;2023-11-19T01:04:18;2.87;;;2.50;;
41139;SDS011;26881;48.784;9.192;2023-11-19T01:09:43;4.07;;;3.07;;
41139;SDS011;26881;48.784;9.192;2023-11-19T01:15:05;3.27;;;2.97;;
41139;SDS011;26881;48.784;9.192;2023-11-19T01:20:28;5.03;;;3.42;;
41139;SDS011;26881;48.784;9.192;2023-11-19T01:25:49;4.85;;;3.13;;
41139;SDS011;26881;48.784;9.192;2023-11-19T01:31:11;3.93;;;3.23;;
41139;SDS011;26881;48.784;9.192;2023-11-19T01:36:34;7.47;;;3.50;;
41139;SDS011;26881;48.784;9.192;2023-11-19T01:41:56;4.20;;;2.88;;
41139;SDS011;26881;48.784;9.192;2023-11-19T01:47:18;5.32;;;2.78;;
41139;SDS011;26881;48.784;9.192;2023-11-19T01:52:41;4.70;;;3.25;;
41139;SDS011;26881;48.784;9.192;2023-11-19T01:58:03;3.75;;;3.28;;
41139;SDS011;26881;48.784;9.192;2023-11-19T02:03:25;3.10;;;2.75;;
41139;SDS011;26881;48.784;9.192;2023-11-19T02:08:49;4.13;;;2.53;;
41139;SDS011;26881;48.784;9.192;2023-11-19T02:14:11;4.13;;;2.30;;
41139;SDS011;26881;48.784;9.192;2023-11-19T02:19:33;3.92;;;2.50;;
41139;SDS011;26881;48.784;9.192;2023-11-19T02:24:58;3.40;;;2.90;;
41139;SDS011;26881;48.784;9.192;2023-11-19T02:30:22;3.63;;;2.65;;
41139;SDS011;26881;48.784;9.192;2023-11-19T02:35:47;5.47;;;3.40;;
41139;SDS011;26881;48.784;9.192;2023-11-19T02:41:09;3.47;;;2.70;;
41139;SDS011;26881;48.784;9.192;2023-11-19T02:46:31;2.50;;;2.30;;
41139;SDS011;26881;48.784;9.192;2023-11-19T02:51:53;3.15;;;2.35;;
41139;SDS011;26881;48.784;9.192;2023-11-19T02:57:15;2.20;;;2.00;;
41139;SDS011;26881;48.784;9.192;2023-11-19T03:02:46;4.00;;;2.70;;
41139;SDS011;26881;48.784;9.192;2023-11-19T03:08:09;4.45;;;2.60;;
41139;SDS011;26881;48.784;9.192;2023-11-19T03:13:44;2.70;;;2.43;;
41139;SDS011;26881;48.784;9.192;2023-11-19T03:19:05;2.57;;;2.37;;
41139;SDS011;26881;48.784;9.192;2023-11-19T03:24:27;3.75;;;2.45;;
41139;SDS011;26881;48.784;9.192;2023-11-19T03:29:49;2.80;;;2.50;;
41139;SDS011;26881;48.784;9.192;2023-11-19T03:35:11;3.92;;;2.70;;
41139;SDS011;26881;48.784;9.192;2023-11-19T03:40:33;3.30;;;3.00;;
41139;SDS011;26881;48.784;9.192;2023-11-19T03:45:55;6.20;;;3.60;;
41139;SDS011;26881;48.784;9.192;2023-11-19T03:51:17;3.40;;;3.10;;
41139;SDS011;26881;48.784;9.192;2023-11-19T03:56:39;3.33;;;2.47;;
41139;SDS011;26881;48.784;9.192;2023-11-19T04:02:01;3.77;;;2.23;;
41139;SDS011;26881;48.784;9.192;2023-11-19T04:07:24;2.55;;;2.35;;
41139;SDS011;26881;48.784;9.192;2023-11-19T04:12:45;1.92;;;1.60;;
41139;SDS011;26881;48.784;9.192;2023-11-19T04:18:07;0.40;;;0.40;;
41139;SDS011;26881;48.784;9.192;2023-11-19T04:23:30;0.30;;;0.30;;
41139;SDS011;26881;48.784;9.192;2023-11-19T04:28:52;0.50;;;0.50;;
41139;SDS011;26881;48.784;9.192;2023-11-19T04:34:14;0.30;;;0.30;;
41139;SDS011;26881;48.784;9.192;2023-11-19T04:39:36;1.60;;;0.30;;
41139;SDS011;26881;48.784;9.192;2023-11-19T04:44:58;1.95;;;0.40;;
41139;SDS011;26881;48.784;9.192;2023-11-19T04:50:20;0.45;;;0.30;;
41139;SDS011;26881;48.784;9.192;2023-11-19T04:55:43;0.88;;;0.20;;
41139;SDS011;26881;48.784;9.192;2023-11-19T05:01:05;0.40;;;0.25;;
41139;SDS011;26881;48.784;9.192;2023-11-19T05:06:30;1.23;;;0.30;;
41139;SDS011;26881;48.784;9.192;2023-11-19T05:11:52;0.20;;;0.20;;
41139;SDS011;26881;48.784;9.192;2023-11-19T05:17:15;0.45;;;0.22;;
41139;SDS011;26881;48.784;9.192;2023-11-19T05:22:40;1.08;;;0.38;;
41139;SDS011;26881;48.784;9.192;2023-11-19T05:28:03;0.88;;;0.30;;
41139;SDS011;26881;48.784;9.192;2023-11-19T05:33:24;0.40;;;0.40;;
41139;SDS011;26881;48.784;9.192;2023-11-19T05:38:46;0.47;;;0.47;;
41139;SDS011;26881;48.784;9.192;2023-11-19T05:44:08;1.25;;;0.40;;
41139;SDS011;26881;48.784;9.192;2023-11-19T05:49:30;0.38;;;0.38;;
41139;SDS011;26881;48.784;9.192;2023-11-19T05:54:52;1.08;;;0.52;;
41139;SDS011;26881;48.784;9.192;2023-11-19T06:00:14;0.40;;;0.40;;
41139;SDS011;26881;48.784;9.192;2023-11-19T06:05:37;1.42;;;0.57;;
41139;SDS011;26881;48.784;9.192;2023-11-19T06:10:59;0.40;;;0.40;;
41139;SDS011;26881;48.784;9.192;2023-11-19T06:16:22;0.40;;;0.40;;
41139;SDS011;26881;48.784;9.192;2023-11-19T06:21:44;0.60;;;0.50;;
41139;SDS011;26881;48.784;9.192;2023-11-19T06:27:06;1.38;;;0.50;;
41139;SDS011;26881;48.784;9.192;2023-11-19T06:32:31;0.85;;;0.38;;
41139;SDS011;26881;48.784;9.192;2023-11-19T06:37:54;1.55;;;0.30;;
41139;SDS011;26881;48.784;9.192;2023-11-19T06:43:16;0.70;;;0.30;;
41139;SDS011;26881;48.784;9.192;2023-11-19T06:48:38;0.50;;;0.40;;
41139;SDS011;26881;48.784;9.192;2023-11-19T06:54:00;0.30;;;0.30;;
41139;SDS011;26881;48.784;9.192;2023-11-19T06:59:22;2.05;;;0.50;;
41139;SDS011;26881;48.784;9.192;2023-11-19T07:04:44;0.40;;;0.30;;
41139;SDS011;26881;48.784;9.192;2023-11-19T07:10:06;0.63;;;0.40;;
41139;SDS011;26881;48.784;9.192;2023-11-19T07:15:31;0.30;;;0.30;;
41139;SDS011;26881;48.784;9.192;2023-11-19T07:20:54;2.53;;;0.40;;
41139;SDS011;26881;48.784;9.192;2023-11-19T07:26:16;1.40;;;0.40;;
41139;SDS011;26881;48.784;9.192;2023-11-19T07:31:38;1.27;;;0.40;;
41139;SDS011;26881;48.784;9.192;2023-11-19T07:37:00;0.75;;;0.30;;
41139;SDS011;26881;48.784;9.192;2023-11-19T07:42:24;0.73;;;0.40;;
41139;SDS011;26881;48.784;9.192;2023-11-19T07:47:46;0.98;;;0.50;;
41139;SDS011;26881;48.784;9.192;2023-11-19T07:53:08;1.35;;;0.80;;
41139;SDS011;26881;48.784;9.192;2023-11-19T07:58:30;0.95;;;0.40;;
41139;SDS011;26881;48.784;9.192;2023-11-19T08:03:52;0.40;;;0.40;;
41139;SDS011;26881;48.784;9.192;2023-11-19T08:09:17;1.05;;;0.70;;
41139;SDS011;26881;48.784;9.192;2023-11-19T08:14:39;1.10;;;0.70;;
41139;SDS011;26881;48.784;9.192;2023-11-19T08:20:01;0.55;;;0.55;;
41139;SDS011;26881;48.784;9.192;2023-11-19T08:25:23;0.50;;;0.35;;
41139;SDS011;26881;48.784;9.192;2023-11-19T08:30:45;0.40;;;0.40;;
41139;SDS011;26881;48.784;9.192;2023-11-19T08:36:07;0.35;;;0.35;;
41139;SDS011;26881;48.784;9.192;2023-11-19T08:41:29;0.68;;;0.60;;
41139;SDS011;26881;48.784;9.192;2023-11-19T08:46:52;1.95;;;0.50;;
41139;SDS011;26881;48.784;9.192;2023-11-19T08:52:13;2.83;;;0.95;;
41139;SDS011;26881;48.784;9.192;2023-11-19T08:57:35;0.55;;;0.55;;
41139;SDS011;26881;48.784;9.192;2023-11-19T09:02:57;0.60;;;0.43;;
41139;SDS011;26881;48.784;9.192;2023-11-19T09:08:20;0.57;;;0.38;;
41139;SDS011;26881;48.784;9.192;2023-11-19T09:13:42;0.85;;;0.57;;
41139;SDS011;26881;48.784;9.192;2023-11-19T09:19:03;1.17;;;0.40;;
41139;SDS011;26881;48.784;9.192;2023-11-19T09:24:27;0.40;;;0.40;;
41139;SDS011;26881;48.784;9.192;2023-11-19T09:29:49;1.42;;;0.70;;
41139;SDS011;26881;48.784;9.192;2023-11-19T09:35:16;2.05;;;0.60;;
41139;SDS011;26881;48.784;9.192;2023-11-19T09:40:38;0.90;;;0.60;;
41139;SDS011;26881;48.784;9.192;2023-11-19T09:46:01;3.92;;;0.50;;
41139;SDS011;26881;48.784;9.192;2023-11-19T09:51:28;2.35;;;0.55;;
41139;SDS011;26881;48.784;9.192;2023-11-19T09:56:50;2.40;;;0.60;;
41139;SDS011;26881;48.784;9.192;2023-11-19T10:02:12;0.55;;;0.55;;
41139;SDS011;26881;48.784;9.192;2023-11-19T10:07:36;1.13;;;0.50;;
41139;SDS011;26881;48.784;9.192;2023-11-19T10:12:58;0.57;;;0.50;;
41139;SDS011;26881;48.784;9.192;2023-11-19T10:18:28;1.00;;;0.50;;
41139;SDS011;26881;48.784;9.192;2023-11-19T10:23:50;1.48;;;0.85;;
41139;SDS011;26881;48.784;9.192;2023-11-19T10:29:13;0.73;;;0.63;;
41139;SDS011;26881;48.784;9.192;2023-11-19T10:34:36;2.03;;;0.70;;
41139;SDS011;26881;48.784;9.192;2023-11-19T10:40:01;3.70;;;1.50;;
41139;SDS011;26881;48.784;9.192;2023-11-19T10:45:23;2.10;;;1.10;;
41139;SDS011;26881;48.784;9.192;2023-11-19T10:50:45;1.38;;;0.85;;
41139;SDS011;26881;48.784;9.192;2023-11-19T10:56:11;1.55;;;0.63;;
41139;SDS011;26881;48.784;9.192;2023-11-19T11:01:44;0.82;;;0.70;;
41139;SDS011;26881;48.784;9.192;2023-11-19T11:07:07;1.77;;;0.77;;
41139;SDS011;26881;48.784;9.192;2023-11-19T11:12:31;1.90;;;0.67;;
41139;SDS011;26881;48.784;9.192;2023-11-19T11:18:01;1.98;;;0.60;;
41139;SDS011;26881;48.784;9.192;2023-11-19T11:29:19;1.50;;;0.75;;
41139;SDS011;26881;48.784;9.192;2023-11-19T11:40:17;1.83;;;0.60;;
41139;SDS011;26881;48.784;9.192;2023-11-19T11:45:45;1.45;;;0.70;;
41139;SDS011;26881;48.784;9.192;2023-11-19T11:51:07;2.50;;;0.80;;
41139;SDS011;26881;48.784;9.192;2023-11-19T11:56:32;0.80;;;0.60;;
41139;SDS011;26881;48.784;9.192;2023-11-19T12:01:58;1.77;;;0.70;;
41139;SDS011;26881;48.784;9.192;2023-11-19T12:07:21;2.83;;;1.15;;
41139;SDS011;26881;48.784;9.192;2023-11-19T12:12:44;2.05;;;1.00;;
41139;SDS011;26881;48.784;9.192;2023-11-19T12:18:06;1.75;;;0.70;;
41139;SDS011;26881;48.784;9.192;2023-11-19T12:23:29;1.65;;;0.80;;
41139;SDS011;26881;48.784;9.192;2023-11-19T12:28:58;1.45;;;0.55;;
41139;SDS011;26881;48.784;9.192;2023-11-19T12:34:21;1.48;;;0.95;;
41139;SDS011;26881;48.784;9.192;2023-11-19T12:39:46;1.67;;;0.60;;
41139;SDS011;26881;48.784;9.192;2023-11-19T12:45:08;1.48;;;0.80;;
41139;SDS011;26881;48.784;9.192;2023-11-19T12:56:13;1.60;;;0.90;;
41139;SDS011;26881;48.784;9.192;2023-11-19T13:01:35;5.20;;;0.85;;
41139;SDS011;26881;48.784;9.192;2023-11-19T13:06:58;1.63;;;0.70;;
41139;SDS011;26881;48.784;9.192;2023-11-19T13:12:23;3.22;;;0.80;;
41139;SDS011;26881;48.784;9.192;2023-11-19T13:17:47;4.82;;;0.75;;
41139;SDS011;26881;48.784;9.192;2023-11-19T13:23:10;3.20;;;1.00;;
41139;SDS011;26881;48.784;9.192;2023-11-19T13:28:32;1.77;;;0.90;;
41139;SDS011;26881;48.784;9.192;2023-11-19T13:33:54;1.58;;;0.95;;
41139;SDS011;26881;48.784;9.192;2023-11-19T13:39:16;2.90;;;0.70;;
41139;SDS011;26881;48.784;9.192;2023-11-19T13:44:44;1.95;;;0.70;;
41139;SDS011;26881;48.784;9.192;2023-11-19T13:50:07;1.50;;;0.90;;
41139;SDS011;26881;48.784;9.192;2023-11-19T13:55:30;1.40;;;0.90;;
41139;SDS011;26881;48.784;9.192;2023-11-19T14:00:52;2.40;;;1.13;;
41139;SDS011;26881;48.784;9.192;2023-11-19T14:06:14;1.27;;;0.60;;
41139;SDS011;26881;48.784;9.192;2023-11-19T14:11:36;2.90;;;0.77;;
41139;SDS011;26881;48.784;9.192;2023-11-19T14:16:58;2.22;;;0.80;;
41139;SDS011;26881;48.784;9.192;2023-11-19T14:22:34;1.55;;;0.70;;
41139;SDS011;26881;48.784;9.192;2023-11-19T14:27:56;1.10;;;0.70;;
41139;SDS011;26881;48.784;9.192;2023-11-19T14:33:18;1.52;;;1.08;;
41139;SDS011;26881;48.784;9.192;2023-11-19T14:38:40;1.15;;;0.98;;
41139;SDS011;26881;48.784;9.192;2023-11-19T14:44:02;2.50;;;0.70;;
41139;SDS011;26881;48.784;9.192;2023-11-19T14:49:24;1.60;;;1.20;;
41139;SDS011;26881;48.784;9.192;2023-11-19T14:54:47;2.65;;;0.80;;
41139;SDS011;26881;48.784;9.192;2023-11-19T15:00:10;2.42;;;0.80;;
41139;SDS011;26881;48.784;9.192;2023-11-19T15:05:35;1.98;;;0.95;;
41139;SDS011;26881;48.784;9.192;2023-11-19T15:10:57;2.72;;;1.08;;
41139;SDS011;26881;48.784;9.192;2023-11-19T15:16:22;1.50;;;1.10;;
41139;SDS011;26881;48.784;9.192;2023-11-19T15:21:47;2.00;;;1.00;;
41139;SDS011;26881;48.784;9.192;2023-11-19T15:27:09;1.58;;;0.90;;
41139;SDS011;26881;48.784;9.192;2023-11-19T15:32:35;1.45;;;0.82;;
41139;SDS011;26881;48.784;9.192;2023-11-19T15:37:57;2.22;;;0.90;;
41139;SDS011;26881;48.784;9.192;2023-11-19T15:43:19;2.05;;;1.15;;
41139;SDS011;26881;48.784;9.192;2023-11-19T15:48:41;2.92;;;1.75;;
41139;SDS011;26881;48.784;9.192;2023-11-19T15:54:03;1.50;;;1.02;;
41139;SDS011;26881;48.784;9.192;2023-11-19T15:59:26;2.20;;;0.90;;
41139;SDS011;26881;48.784;9.192;2023-11-19T16:04:48;2.90;;;1.27;;
41139;SDS011;26881;48.784;9.192;2023-11-19T16:10:11;3.47;;;1.70;;
41139;SDS011;26881;48.784;9.192;2023-11-19T16:15:34;2.75;;;1.40;;
41139;SDS011;26881;48.784;9.192;2023-11-19T16:20:57;1.45;;;1.10;;
41139;SDS011;26881;48.784;9.192;2023-11-19T16:26:19;2.13;;;1.20;;
41139;SDS011;26881;48.784;9.192;2023-11-19T16:31:41;3.45;;;1.00;;
41139;SDS011;26881;48.784;9.192;2023-11-19T16:37:04;2.97;;;1.90;;
41139;SDS011;26881;48.784;9.192;2023-11-19T16:42:27;13.85;;;8.43;;
41139;SDS011;26881;48.784;9.192;2023-11-19T16:47:49;4.07;;;1.80;;
41139;SDS011;26881;48.784;9.192;2023-11-19T16:53:11;2.08;;;1.08;;
41139;SDS011;26881;48.784;9.192;2023-11-19T16:58:33;1.98;;;1.40;;
41139;SDS011;26881;48.784;9.192;2023-11-19T17:03:55;2.35;;;1.80;;
41139;SDS011;26881;48.784;9.192;2023-11-19T17:09:19;3.13;;;2.00;;
41139;SDS011;26881;48.784;9.192;2023-11-19T17:14:41;3.05;;;1.67;;
41139;SDS011;26881;48.784;9.192;2023-11-19T17:20:04;2.30;;;1.95;;
41139;SDS011;26881;48.784;9.192;2023-11-19T17:25:27;2.63;;;1.50;;
41139;SDS011;26881;48.784;9.192;2023-11-19T17:30:49;3.08;;;1.77;;
41139;SDS011;26881;48.784;9.192;2023-11-19T17:36:11;3.22;;;1.60;;
41139;SDS011;26881;48.784;9.192;2023-11-19T17:41:33;4.70;;;1.55;;
41139;SDS011;26881;48.784;9.192;2023-11-19T17:46:55;2.22;;;1.00;;
41139;SDS011;26881;48.784;9.192;2023-11-19T17:52:17;5.03;;;1.50;;
41139;SDS011;26881;48.784;9.192;2023-11-19T17:57:40;2.78;;;1.67;;
41139;SDS011;26881;48.784;9.192;2023-11-19T18:03:02;2.20;;;1.67;;
41139;SDS011;26881;48.784;9.192;2023-11-19T18:08:26;2.53;;;1.35;;
41139;SDS011;26881;48.784;9.192;2023-11-19T18:13:48;3.75;;;1.30;;
41139;SDS011;26881;48.784;9.192;2023-11-19T18:19:11;3.08;;;1.20;;
41139;SDS011;26881;48.784;9.192;2023-11-19T18:24:33;5.35;;;1.52;;
41139;SDS011;26881;48.784;9.192;2023-11-19T18:29:57;3.17;;;1.50;;
41139;SDS011;26881;48.784;9.192;2023-11-19T18:35:19;3.63;;;1.42;;
41139;SDS011;26881;48.784;9.192;2023-11-19T18:40:46;3.63;;;1.60;;
41139;SDS011;26881;48.784;9.192;2023-11-19T18:46:08;1.60;;;1.10;;
41139;SDS011;26881;48.784;9.192;2023-11-19T18:51:30;2.78;;;1.30;;
41139;SDS011;26881;48.784;9.192;2023-11-19T18:56:52;3.38;;;1.30;;
41139;SDS011;26881;48.784;9.192;2023-11-19T19:02:18;2.90;;;1.20;;
41139;SDS011;26881;48.784;9.192;2023-11-19T19:07:40;3.78;;;1.70;;
41139;SDS011;26881;48.784;9.192;2023-11-19T19:13:03;4.70;;;2.30;;
41139;SDS011;26881;48.784;9.192;2023-11-19T19:18:25;4.40;;;1.98;;
41139;SDS011;26881;48.784;9.192;2023-11-19T19:23:47;6.55;;;2.55;;
41139;SDS011;26881;48.784;9.192;2023-11-19T19:29:09;4.63;;;2.20;;
41139;SDS011;26881;48.784;9.192;2023-11-19T19:34:32;5.22;;;2.42;;
41139;SDS011;26881;48.784;9.192;2023-11-19T19:39:54;4.35;;;1.90;;
41139;SDS011;26881;48.784;9.192;2023-11-19T19:45:16;2.50;;;1.63;;
41139;SDS011;26881;48.784;9.192;2023-11-19T19:50:38;7.30;;;1.98;;
41139;SDS011;26881;48.784;9.192;2023-11-19T19:56:00;4.88;;;1.77;;
41139;SDS011;26881;48.784;9.192;2023-11-19T20:01:22;5.75;;;2.20;;
41139;SDS011;26881;48.784;9.192;2023-11-19T20:06:44;8.68;;;2.25;;
41139;SDS011;26881;48.784;9.192;2023-11-19T20:12:07;5.30;;;2.33;;
41139;SDS011;26881;48.784;9.192;2023-11-19T20:17:30;6.30;;;2.33;;
41139;SDS011;26881;48.784;9.192;2023-11-19T20:22:52;11.63;;;2.42;;
41139;SDS011;26881;48.784;9.192;2023-11-19T20:28:14;4.97;;;1.73;;
41139;SDS011;26881;48.784;9.192;2023-11-19T20:33:36;5.70;;;2.03;;
41139;SDS011;26881;48.784;9.192;2023-11-19T20:38:58;4.72;;;1.73;;
41139;SDS011;26881;48.784;9.192;2023-11-19T20:44:20;4.80;;;1.67;;
41139;SDS011;26881;48.784;9.192;2023-11-19T20:49:41;5.07;;;2.10;;
41139;SDS011;26881;48.784;9.192;2023-11-19T20:55:03;7.28;;;1.90;;
41139;SDS011;26881;48.784;9.192;2023-11-19T21:00:26;10.38;;;2.20;;
41139;SDS011;26881;48.784;9.192;2023-11-19T21:05:48;11.13;;;4.35;;
41139;SDS011;26881;48.784;9.192;2023-11-19T21:11:15;13.20;;;5.20;;
41139;SDS011;26881;48.784;9.192;2023-11-19T21:16:37;8.50;;;2.95;;
41139;SDS011;26881;48.784;9.192;2023-11-19T21:21:59;14.18;;;2.80;;
41139;SDS011;26881;48.784;9.192;2023-11-19T21:27:21;9.60;;;2.40;;
41139;SDS011;26881;48.784;9.192;2023-11-19T21:32:43;13.30;;;2.78;;
41139;SDS011;26881;48.784;9.192;2023-11-19T21:38:05;13.63;;;2.70;;
41139;SDS011;26881;48.784;9.192;2023-11-19T21:43:27;11.23;;;2.72;;
41139;SDS011;26881;48.784;9.192;2023-11-19T21:48:49;12.52;;;3.17;;
41139;SDS011;26881;48.784;9.192;2023-11-19T21:54:11;12.95;;;3.47;;
41139;SDS011;26881;48.784;9.192;2023-11-19T21:59:33;11.60;;;2.45;;
41139;SDS011;26881;48.784;9.192;2023-11-19T22:04:55;15.38;;;2.65;;
41139;SDS011;26881;48.784;9.192;2023-11-19T22:10:17;12.90;;;2.15;;
41139;SDS011;26881;48.784;9.192;2023-11-19T22:15:38;14.43;;;3.08;;
41139;SDS011;26881;48.784;9.192;2023-11-19T22:21:00;12.40;;;2.63;;
41139;SDS011;26881;48.784;9.192;2023-11-19T22:26:22;14.18;;;2.97;;
41139;SDS011;26881;48.784;9.192;2023-11-19T22:31:44;11.35;;;2.80;;
41139;SDS011;26881;48.784;9.192;2023-11-19T22:37:07;11.50;;;2.80;;
41139;SDS011;26881;48.784;9.192;2023-11-19T22:42:29;12.07;;;2.78;;
41139;SDS011;26881;48.784;9.192;2023-11-19T22:47:51;14.25;;;2.70;;
41139;SDS011;26881;48.784;9.192;2023-11-19T22:53:13;14.53;;;3.17;;
41139;SDS011;26881;48.784;9.192;2023-11-19T22:58:35;15.05;;;2.67;;
41139;SDS011;26881;48.784;9.192;2023-11-19T23:03:57;12.38;;;2.75;;
41139;SDS011;26881;48.784;9.192;2023-11-19T23:09:19;14.20;;;3.45;;
41139;SDS011;26881;48.784;9.192;2023-11-19T23:14:41;13.93;;;3.35;;
41139;SDS011;26881;48.784;9.192;2023-11-19T23:20:03;21.88;;;3.33;;
41139;SDS011;26881;48.784;9.192;2023-11-19T23:25:29;20.65;;;3.75;;
41139;SDS011;26881;48.784;9.192;2023-11-19T23:30:51;14.47;;;3.03;;
41139;SDS011;26881;48.784;9.192;2023-11-19T23:36:13;14.20;;;3.07;;
41139;SDS011;26881;48.784;9.192;2023-11-19T23:41:35;15.45;;;2.95;;
41139;SDS011;26881;48.784;9.192;2023-11-19T23:46:56;13.13;;;2.90;;
41139;SDS011;26881;48.784;9.192;2023-11-19T23:52:18;16.75;;;3.60;;
41139;SDS011;26881;48.784;9.192;2023-11-19T23:57:40;16.13;;;2.83;;
